AirNav   Jet Aviation Boston
 
 1284 users online  

0M8 Byerley Airport
Lake Providence, Louisiana, USA

GOING TO LAKE PROVIDENCE?


FAA INFORMATION EFFECTIVE 19 JULY 2018

Location

FAA Identifier: 0M8
Lat/Long: 32-49-33.1650N / 091-11-15.5940W
32-49.552750N / 091-11.259900W
32.8258792 / -91.1876650
(estimated)
Elevation: 106 ft. / 32.3 m (surveyed)
Variation: 03E (1985)
From city: 2 miles N of LAKE PROVIDENCE, LA
Time zone: UTC -5 (UTC -6 during Standard Time)
Zip code: 71254

Airport Operations

Airport use: Open to the public
Activation date: 10/1951
Control tower: no
ARTCC: MEMPHIS CENTER
FSS: DE RIDDER FLIGHT SERVICE STATION
NOTAMs facility: DRI (NOTAM-D service available)
Attendance: UNATNDD
Wind indicator: yes
Segmented circle: no
Beacon: white-green (lighted land airport)
ROTG BCN OTS INDEFLY. Operates sunset to sunrise.

Airport Communications

CTAF: 122.9

Nearby radio navigation aids

NDB name  Hdg/Dist  Freq  Var  ID
BASTROP080/35.432903EBQP -... --.- .--.
TALLULAH345/35.834402ETKH - -.- ....
METCALF197/37.435901WMTQ -- - --.-

Airport Services

Airframe service: NONE
Powerplant service: NONE
Bottled oxygen: NONE
Bulk oxygen: NONE

Runway Information

Runway 17/35

Dimensions: 3196 x 75 ft. / 974 x 23 m
Surface: asphalt, in fair condition
Weight bearing capacity: 
Single wheel: 4.0
Runway edge markings: RY MARKINGS ARE EXTREMELY FADED.
NO HOLD SHORT LINE EAST SIDE OF RY 35.
RUNWAY 17  RUNWAY 35
Latitude: 32-49.815367N32-49.290417N
Longitude: 091-11.288517W091-11.232867W
Elevation: 103.0 ft.103.0 ft.
Gradient: 0.1%0.1%
Traffic pattern: leftleft
Runway heading: 172 magnetic, 175 true352 magnetic, 355 true
Displaced threshold: 175 ft.
DSPLCD THLD NOT LIGHTED.
530 ft.
DSPLCD THLD NOT LIGHTED.
Markings: NSTD, in poor conditionnonprecision, in poor condition
Runway end identifier lights: no
Touchdown point: yes, no lightsyes, no lights
Obstructions: 15 ft. road, 310 ft. from runway, 7:1 slope to clear
APCH RATIO 32:1 FM DSPLCD THLD.
106 ft. trees, 710 ft. from runway, 200 ft. right of centerline, 4:1 slope to clear
APCH RATIO 11:1 FM DSPLCD THLD.

Airport Ownership and Management from official FAA records

Ownership: Publicly-owned
Owner: EAST CARROLL PARISH
400 1ST STREET
LAKE PROVIDENCE, LA 71254
Phone 318-559-2256
Manager: BARRY BOYETTE
623 SCHNEIDER LANE
LAKE PROVIDENCE, LA 71254
Phone (318) 282-9263

Airport Operational Statistics

Aircraft based on the field: 3
Single engine airplanes: 3
    
Aircraft operations: avg 134/week *
71% local general aviation
29% transient general aviation
* for 12-month period ending 12 September 2017

Additional Remarks

WEST APRON POOR CONDITION; GRAVEL& POTHOLES.
DAY VFR ONLY.

Instrument Procedures

There are no published instrument procedures at 0M8.

Some nearby airports with instrument procedures:

KTVR - Vicksburg Tallulah Regional Airport (30 nm S)
M32 - Lake Village Municipal Airport (32 nm N)
KBQP - Morehouse Memorial Airport (35 nm W)
M79 - John H Hooks Jr Memorial Airport (36 nm SW)
87I - Yazoo County Airport (37 nm E)
 
Loc | Ops | Rwys | IFR | FBO | Links
Com | Nav | Svcs | Stats | Notes


 
Area around 0M8 (Byerley Airport)
 
Road maps at: MapQuest Bing Google
 
Aerial photo
WARNING: Photo may not be current or correct
Aerial photo of 0M8 (Byerley Airport)
Do you have a better or more recent aerial photo of Byerley Airport that you would like to share? If so, please send us your photo.

 
Sectional chart

 
Airport distance calculator
Flying to Byerley Airport? Find the distance to fly.

From to 0M8

Sunrise and sunset
Times for 23-Jul-2018
 Local
(UTC-5)
 Zulu
(UTC)
Morning civil twilight05:4610:46
Sunrise06:1311:13
Sunset20:0901:09
Evening civil twilight20:3601:36

Current date and time
Zulu (UTC)  23-Jul-2018 13:39:30
Local (UTC-5)  23-Jul-2018 08:39:30
 
METAR
KTVR 
30nm S 
231253Z AUTO 00000KT 10SM CLR 26/26 A2987 RMK AO2 SLP122 T02560256
KBQP 
35nm W 
231315Z AUTO 00000KT 10SM CLR 28/24 A2990 RMK AO2 T02750240
KVKS 
38nm S 
231315Z AUTO 00000KT 10SM CLR 26/25 A2988 RMK A01
KGLH 
42nm N 
231255Z COR 21008KT 10SM CLR A2989
KMLU 
47nm SW 
231253Z 00000KT 10SM CLR 26/24 A2989 RMK AO2 SLP119 T02610239
TAF
KGLH 
42nm N 
231123Z 2312/2412 36008KT P6SM BKN250= TAF KHKS 231123Z 2312/2412 33005KT P6SM -SHRA SCT050 BKN120 FM231400 33008KT P6SM BKN250
KMLU 
47nm SW 
231142Z 2312/2412 VRB04KT P6SM BKN100 BKN250 FM231500 01006KT P6SM BKN100 BKN250 FM231800 01008KT P6SM BKN045 BKN120 BKN280 FM240100 03004KT P6SM BKN060 FM240600 04003KT P6SM SCT050
NOTAMs
Click for the latest NOTAMs
NOTAMs are issued by the DoD/FAA and will open in a separate window not controlled by AirNav.

 

 
 

Would you like to see your business listed on this page?

 If your business provides an interesting product or service to pilots, flight crews, aircraft, or users of the Byerley Airport, you should consider listing it here.  To start the listing process, click on the button below
 
Add a business
 

Other Pages about Byerley Airport

Update a link
 
Copyright © AirNav, LLC. All rights reserved. Privacy Policy  Contact